createdAt,value
2023-04-09T00:00:20.994Z,12.80
2023-04-09T00:02:48.303Z,11.73
2023-04-09T00:05:16.616Z,11.80
2023-04-09T00:07:44.669Z,11.27
2023-04-09T00:10:12.013Z,11.10
2023-04-09T00:12:39.806Z,10.90
2023-04-09T00:23:22.417Z,12.70
2023-04-09T00:25:49.715Z,13.07
2023-04-09T00:28:43.897Z,11.10
2023-04-09T00:31:11.342Z,12.07
2023-04-09T00:33:39.517Z,14.03
2023-04-09T00:36:07.976Z,11.43
2023-04-09T00:38:36.944Z,10.20
2023-04-09T00:46:11.873Z,12.63
2023-04-09T00:48:40.155Z,11.87
2023-04-09T00:51:08.787Z,12.63
2023-04-09T00:53:36.197Z,13.13
2023-04-09T00:56:05.997Z,13.43
2023-04-09T00:58:33.711Z,11.17
2023-04-09T01:01:01.220Z,12.07
2023-04-09T01:06:33.768Z,11.27
2023-04-09T01:09:10.445Z,12.40
2023-04-09T01:11:43.703Z,13.80
2023-04-09T01:14:21.005Z,12.87
2023-04-09T01:16:57.688Z,14.30
2023-04-09T01:19:41.843Z,16.80
2023-04-09T01:28:18.531Z,17.83
2023-04-09T01:30:49.543Z,13.53
2023-04-09T01:33:20.160Z,15.67
2023-04-09T01:35:48.253Z,15.87
2023-04-09T01:38:19.067Z,15.87
2023-04-09T01:40:47.330Z,15.50
2023-04-09T01:43:16.305Z,22.37
2023-04-09T01:50:50.745Z,17.27
2023-04-09T01:53:20.391Z,13.53
2023-04-09T01:55:47.645Z,14.90
2023-04-09T01:58:15.095Z,14.07
2023-04-09T02:00:47.682Z,17.10
2023-04-09T02:03:18.756Z,14.43
2023-04-09T02:05:53.397Z,16.93
2023-04-09T02:13:26.869Z,14.30
2023-04-09T02:15:56.631Z,15.27
2023-04-09T02:18:26.782Z,16.63
2023-04-09T02:20:55.075Z,16.37
2023-04-09T02:23:22.952Z,17.57
2023-04-09T02:25:51.079Z,16.83
2023-04-09T02:28:18.263Z,15.53
2023-04-09T02:33:24.995Z,14.30
2023-04-09T02:35:52.270Z,17.87
2023-04-09T02:38:20.116Z,19.73
2023-04-09T02:40:47.653Z,17.87
2023-04-09T02:43:15.480Z,15.80
2023-04-09T02:45:42.628Z,17.00
2023-04-09T02:48:10.102Z,18.40
2023-04-09T02:55:42.426Z,17.63
2023-04-09T02:58:09.875Z,20.70
2023-04-09T03:00:37.016Z,17.90
2023-04-09T03:03:05.179Z,16.17
2023-04-09T03:05:33.235Z,18.90
2023-04-09T03:08:00.635Z,18.97
2023-04-09T03:10:28.025Z,17.33
2023-04-09T03:18:02.827Z,17.40
2023-04-09T03:20:30.208Z,18.67
2023-04-09T03:22:58.037Z,17.53
2023-04-09T03:25:26.346Z,20.13
2023-04-09T03:27:53.896Z,22.07
2023-04-09T03:30:21.328Z,20.20
2023-04-09T03:32:48.571Z,20.67
2023-04-09T03:35:17.422Z,19.50
2023-04-09T03:42:51.504Z,24.13
2023-04-09T03:45:18.611Z,23.27
2023-04-09T03:47:46.142Z,28.53
2023-04-09T03:50:14.456Z,19.10
2023-04-09T03:52:41.858Z,18.63
2023-04-09T03:55:10.453Z,19.30
2023-04-09T03:57:40.318Z,17.70
2023-04-09T04:05:09.417Z,19.77
2023-04-09T04:07:37.275Z,20.30
2023-04-09T04:10:05.231Z,23.27
2023-04-09T04:12:33.677Z,19.63
2023-04-09T04:15:02.443Z,23.47
2023-04-09T04:17:29.844Z,18.30
2023-04-09T04:19:57.553Z,19.67
2023-04-09T04:30:11.721Z,24.30
2023-04-09T04:32:39.045Z,18.23
2023-04-09T04:35:06.797Z,20.63
2023-04-09T04:37:34.141Z,22.33
2023-04-09T04:40:05.248Z,18.97
2023-04-09T04:42:32.612Z,22.17
2023-04-09T04:45:00.558Z,23.67
2023-04-09T04:50:40.682Z,25.23
2023-04-09T04:53:08.031Z,26.00
2023-04-09T04:55:39.025Z,22.80
2023-04-09T04:58:06.936Z,24.73
2023-04-09T05:00:34.221Z,24.27
2023-04-09T05:03:01.943Z,20.40
2023-04-09T05:05:29.340Z,22.93
2023-04-09T05:11:05.578Z,20.73
2023-04-09T05:13:32.892Z,21.57
2023-04-09T05:16:00.172Z,22.30
2023-04-09T05:18:27.775Z,21.87
2023-04-09T05:20:55.584Z,22.80
2023-04-09T05:23:23.086Z,18.40
2023-04-09T05:28:35.942Z,24.57
2023-04-09T05:31:03.329Z,22.40
2023-04-09T05:33:37.182Z,26.03
2023-04-09T05:36:06.006Z,26.43
2023-04-09T05:38:33.454Z,24.37
2023-04-09T05:41:00.809Z,22.23
2023-04-09T05:43:28.121Z,21.00
2023-04-09T05:51:01.255Z,29.43
2023-04-09T05:53:29.245Z,24.53
2023-04-09T05:55:58.132Z,20.80
2023-04-09T05:58:25.445Z,26.17
2023-04-09T06:00:52.947Z,23.73
2023-04-09T06:03:20.919Z,23.60
2023-04-09T06:05:49.193Z,20.67
2023-04-09T06:16:15.912Z,25.30
2023-04-09T06:18:46.190Z,21.47
2023-04-09T06:21:13.732Z,23.33
2023-04-09T06:23:41.405Z,21.20
2023-04-09T06:26:08.838Z,21.03
2023-04-09T06:28:36.760Z,23.23
2023-04-09T06:31:04.277Z,23.03
2023-04-09T06:33:32.726Z,23.57
2023-04-09T06:43:41.825Z,25.70
2023-04-09T06:46:09.592Z,26.43
2023-04-09T06:48:37.296Z,24.90
2023-04-09T06:51:07.914Z,21.93
2023-04-09T06:53:35.205Z,24.97
2023-04-09T06:56:02.483Z,19.37
2023-04-09T06:58:30.361Z,20.50
2023-04-09T07:08:55.344Z,25.17
2023-04-09T07:11:23.992Z,25.90
2023-04-09T07:13:52.088Z,24.83
2023-04-09T07:16:19.875Z,28.50
2023-04-09T07:18:47.161Z,21.83
2023-04-09T07:21:14.395Z,19.83
2023-04-09T07:23:42.252Z,24.07
2023-04-09T07:28:46.235Z,23.13
2023-04-09T07:31:14.842Z,20.50
2023-04-09T07:33:42.321Z,22.70
2023-04-09T07:36:09.948Z,23.70
2023-04-09T07:38:38.174Z,19.27
2023-04-09T07:41:06.307Z,20.70
2023-04-09T07:43:33.684Z,21.90
2023-04-09T07:48:42.634Z,20.33
2023-04-09T07:51:10.844Z,26.67
2023-04-09T07:53:38.668Z,19.57
2023-04-09T07:56:07.285Z,22.40
2023-04-09T07:58:34.880Z,23.30
2023-04-09T08:01:03.464Z,22.97
2023-04-09T08:03:31.240Z,22.47
2023-04-09T08:11:30.554Z,18.00
2023-04-09T08:13:58.423Z,17.33
2023-04-09T08:16:25.672Z,18.40
2023-04-09T08:18:53.228Z,21.47
2023-04-09T08:21:20.927Z,22.57
2023-04-09T08:23:48.270Z,19.07
2023-04-09T08:26:15.557Z,23.07
2023-04-09T08:28:44.235Z,19.27
2023-04-09T08:36:17.423Z,18.57
2023-04-09T08:38:46.799Z,22.20
2023-04-09T08:41:19.049Z,21.00
2023-04-09T08:46:20.952Z,17.50
2023-04-09T08:48:50.164Z,18.63
2023-04-09T08:51:20.821Z,17.87
2023-04-09T08:56:44.632Z,17.37
2023-04-09T08:59:15.382Z,21.60
2023-04-09T09:01:43.402Z,21.37
2023-04-09T09:04:11.010Z,19.37
2023-04-09T09:06:40.482Z,19.77
2023-04-09T09:09:10.213Z,19.07
2023-04-09T09:11:39.418Z,17.17
2023-04-09T09:17:12.090Z,24.20
2023-04-09T09:19:40.730Z,19.07
2023-04-09T09:22:08.933Z,19.23
2023-04-09T09:24:49.593Z,18.90
2023-04-09T09:27:35.901Z,18.27
2023-04-09T09:30:05.304Z,19.47
2023-04-09T09:32:34.034Z,19.43
2023-04-09T09:40:10.424Z,18.10
2023-04-09T09:42:44.755Z,19.77
2023-04-09T09:45:18.973Z,15.97
2023-04-09T09:47:47.487Z,18.50
2023-04-09T09:50:15.604Z,15.67
2023-04-09T09:52:46.997Z,16.73
2023-04-09T09:55:19.003Z,14.47
2023-04-09T09:57:48.506Z,15.87
2023-04-09T10:05:24.666Z,16.73
2023-04-09T10:07:52.825Z,16.63
2023-04-09T10:10:20.953Z,16.73
2023-04-09T10:12:49.013Z,16.90
2023-04-09T10:15:17.508Z,14.47
2023-04-09T10:17:45.646Z,14.93
2023-04-09T10:20:19.324Z,13.57
2023-04-09T10:28:38.007Z,15.43
2023-04-09T10:31:06.963Z,16.43
2023-04-09T10:33:37.806Z,11.77
2023-04-09T10:36:06.636Z,12.77
2023-04-09T10:38:38.092Z,16.43
2023-04-09T10:41:15.076Z,16.17
2023-04-09T10:43:43.807Z,16.27
2023-04-09T10:51:35.716Z,15.23
2023-04-09T10:54:04.164Z,14.97
2023-04-09T10:56:31.510Z,14.67
2023-04-09T10:58:58.907Z,12.43
2023-04-09T11:01:27.696Z,14.03
2023-04-09T11:04:17.834Z,13.87
2023-04-09T11:06:47.228Z,12.37
2023-04-09T11:14:45.582Z,12.57
2023-04-09T11:17:13.848Z,9.13
2023-04-09T11:19:41.293Z,10.57
2023-04-09T11:22:08.516Z,7.07
2023-04-09T11:24:42.562Z,8.77
2023-04-09T11:27:10.003Z,8.00
2023-04-09T11:29:37.389Z,9.13
2023-04-09T11:37:56.139Z,10.70
2023-04-09T11:40:25.863Z,8.07
2023-04-09T11:42:54.913Z,9.43
2023-04-09T11:45:24.981Z,7.63
2023-04-09T11:47:53.086Z,9.20
2023-04-09T11:50:21.320Z,7.33
2023-04-09T11:52:50.462Z,7.43
2023-04-09T12:01:15.823Z,10.10
2023-04-09T12:03:43.402Z,12.63
2023-04-09T12:06:10.632Z,9.70
2023-04-09T12:08:38.230Z,9.77
2023-04-09T12:11:10.360Z,10.70
2023-04-09T12:13:42.640Z,10.07
2023-04-09T12:16:09.716Z,9.53
2023-04-09T12:23:42.634Z,8.23
2023-04-09T12:26:10.123Z,7.37
2023-04-09T12:28:37.175Z,7.20
2023-04-09T12:31:04.761Z,10.03
2023-04-09T12:33:32.482Z,7.20
2023-04-09T12:36:00.426Z,8.87
2023-04-09T12:38:27.681Z,9.20
2023-04-09T12:40:56.014Z,8.63
2023-04-09T12:51:41.253Z,10.53
2023-04-09T12:54:08.503Z,9.87
2023-04-09T12:56:36.068Z,11.37
2023-04-09T12:59:03.509Z,9.57
2023-04-09T13:01:31.468Z,10.47
2023-04-09T13:03:59.089Z,9.73
2023-04-09T13:06:27.563Z,9.57
2023-04-09T13:14:48.685Z,9.30
2023-04-09T13:17:17.893Z,9.43
2023-04-09T13:19:45.518Z,11.07
2023-04-09T13:22:12.855Z,9.13
2023-04-09T13:24:40.610Z,8.93
2023-04-09T13:27:09.551Z,10.07
2023-04-09T13:29:37.293Z,9.00
2023-04-09T13:39:03.723Z,8.97
2023-04-09T13:41:32.044Z,7.83
2023-04-09T13:44:00.520Z,9.10
2023-04-09T13:46:28.229Z,9.13
2023-04-09T13:48:56.273Z,7.23
2023-04-09T13:51:24.220Z,9.97
2023-04-09T13:53:52.019Z,8.00
2023-04-09T13:59:01.696Z,7.97
2023-04-09T14:01:30.718Z,8.60
2023-04-09T14:03:58.168Z,8.23
2023-04-09T14:06:26.047Z,10.03
2023-04-09T14:08:53.773Z,8.53
2023-04-09T14:11:21.500Z,8.67
2023-04-09T14:13:49.479Z,8.67
2023-04-09T14:24:07.268Z,9.60
2023-04-09T14:26:34.670Z,7.50
2023-04-09T14:29:02.128Z,11.63
2023-04-09T14:31:29.610Z,8.20
2023-04-09T14:33:57.142Z,7.73
2023-04-09T14:36:26.515Z,9.37
2023-04-09T14:38:56.987Z,9.10
2023-04-09T14:47:31.567Z,9.17
2023-04-09T14:50:00.343Z,7.53
2023-04-09T14:52:29.941Z,9.83
2023-04-09T14:54:57.587Z,7.73
2023-04-09T14:57:25.736Z,10.90
2023-04-09T14:59:52.812Z,7.40
2023-04-09T15:02:20.652Z,9.00
2023-04-09T15:04:50.844Z,8.60
2023-04-09T15:12:22.242Z,7.00
2023-04-09T15:14:50.430Z,10.37
2023-04-09T15:17:17.772Z,8.43
2023-04-09T15:19:45.583Z,8.30
2023-04-09T15:22:13.265Z,7.87
2023-04-09T15:24:40.819Z,8.47
2023-04-09T15:27:11.411Z,6.40
2023-04-09T15:32:50.501Z,8.13
2023-04-09T15:35:23.471Z,7.20
2023-04-09T15:37:50.791Z,7.80
2023-04-09T15:40:18.342Z,7.73
2023-04-09T15:42:45.637Z,7.43
2023-04-09T15:45:16.616Z,7.57
2023-04-09T15:47:45.445Z,8.40
2023-04-09T15:52:53.040Z,8.07
2023-04-09T15:55:25.769Z,6.90
2023-04-09T15:57:54.948Z,6.23
2023-04-09T16:00:23.818Z,7.13
2023-04-09T16:02:52.498Z,5.67
2023-04-09T16:05:20.085Z,7.10
2023-04-09T16:07:50.220Z,6.23
2023-04-09T16:13:12.564Z,8.77
2023-04-09T16:15:40.685Z,6.57
2023-04-09T16:18:09.799Z,7.67
2023-04-09T16:20:37.323Z,6.80
2023-04-09T16:23:04.557Z,6.87
2023-04-09T16:25:32.336Z,5.67
2023-04-09T16:28:00.995Z,7.57
2023-04-09T16:38:13.457Z,6.43
2023-04-09T16:40:41.368Z,7.00
2023-04-09T16:43:08.797Z,7.70
2023-04-09T16:45:35.974Z,6.13
2023-04-09T16:48:05.807Z,5.93
2023-04-09T16:50:33.061Z,5.47
2023-04-09T16:53:03.821Z,6.50
2023-04-09T16:58:12.375Z,5.43
2023-04-09T17:00:40.216Z,5.60
2023-04-09T17:03:08.540Z,5.97
2023-04-09T17:05:36.520Z,6.47
2023-04-09T17:08:05.994Z,6.83
2023-04-09T17:10:37.253Z,6.77
2023-04-09T17:13:04.849Z,5.93
2023-04-09T17:20:36.377Z,6.00
2023-04-09T17:23:03.789Z,5.17
2023-04-09T17:25:31.971Z,6.33
2023-04-09T17:28:01.287Z,4.80
2023-04-09T17:30:28.543Z,6.13
2023-04-09T17:32:55.883Z,5.17
2023-04-09T17:35:23.209Z,5.60
2023-04-09T17:45:29.535Z,9.37
2023-04-09T17:47:58.079Z,4.47
2023-04-09T17:50:26.103Z,5.40
2023-04-09T17:52:53.520Z,6.30
2023-04-09T17:55:21.032Z,4.93
2023-04-09T17:57:48.383Z,6.47
2023-04-09T18:00:16.147Z,4.87
2023-04-09T18:10:40.626Z,5.53
2023-04-09T18:13:08.040Z,5.03
2023-04-09T18:15:35.678Z,5.17
2023-04-09T18:18:03.341Z,5.70
2023-04-09T18:20:30.870Z,5.57
2023-04-09T18:22:58.768Z,5.90
2023-04-09T18:25:28.064Z,6.97
2023-04-09T18:33:01.879Z,4.77
2023-04-09T18:35:29.372Z,6.67
2023-04-09T18:37:56.625Z,7.10
2023-04-09T18:40:24.109Z,6.73
2023-04-09T18:42:52.695Z,6.77
2023-04-09T18:45:20.871Z,6.17
2023-04-09T18:47:48.251Z,5.17
2023-04-09T18:52:56.170Z,5.27
2023-04-09T18:55:25.580Z,5.00
2023-04-09T18:57:52.689Z,6.20
2023-04-09T19:00:20.482Z,8.33
2023-04-09T19:02:49.351Z,5.87
2023-04-09T19:05:16.902Z,5.90
2023-04-09T19:07:44.405Z,6.17
2023-04-09T19:10:16.136Z,11.30
2023-04-09T19:17:48.036Z,5.80
2023-04-09T19:20:15.791Z,5.43
2023-04-09T19:22:46.047Z,6.33
2023-04-09T19:25:14.286Z,5.33
2023-04-09T19:27:41.610Z,5.80
2023-04-09T19:30:10.391Z,7.23
2023-04-09T19:32:38.740Z,6.73
2023-04-09T19:35:08.851Z,5.73
2023-04-09T19:42:42.431Z,7.13
2023-04-09T19:45:10.766Z,6.43
2023-04-09T19:47:38.805Z,7.13
2023-04-09T19:50:06.961Z,7.67
2023-04-09T19:52:34.576Z,7.13
2023-04-09T19:55:03.781Z,6.43
2023-04-09T19:57:31.953Z,6.63
2023-04-09T20:02:41.637Z,6.57
2023-04-09T20:05:09.952Z,7.73
2023-04-09T20:07:37.888Z,7.97
2023-04-09T20:10:06.785Z,7.70
2023-04-09T20:12:35.578Z,6.40
2023-04-09T20:15:02.970Z,6.60
2023-04-09T20:17:30.545Z,7.60
2023-04-09T20:27:59.101Z,7.57
2023-04-09T20:30:26.433Z,7.77
2023-04-09T20:32:54.121Z,7.00
2023-04-09T20:35:21.488Z,6.97
2023-04-09T20:37:49.420Z,7.83
2023-04-09T20:40:16.993Z,8.13
2023-04-09T20:42:44.478Z,6.80
2023-04-09T20:52:54.407Z,9.07
2023-04-09T20:55:22.484Z,7.67
2023-04-09T20:57:50.158Z,8.73
2023-04-09T21:00:18.145Z,7.47
2023-04-09T21:02:45.542Z,7.97
2023-04-09T21:05:22.619Z,7.63
2023-04-09T21:07:51.605Z,7.23
2023-04-09T21:18:22.692Z,7.60
2023-04-09T21:20:51.151Z,7.70
2023-04-09T21:23:18.861Z,7.93
2023-04-09T21:25:46.285Z,7.37
2023-04-09T21:28:14.276Z,10.17
2023-04-09T21:30:41.902Z,7.30
2023-04-09T21:33:10.190Z,7.70
2023-04-09T21:38:20.443Z,8.53
2023-04-09T21:40:47.779Z,8.97
2023-04-09T21:43:18.030Z,7.33
2023-04-09T21:45:46.422Z,8.17
2023-04-09T21:48:13.720Z,8.73
2023-04-09T21:50:46.126Z,7.33
2023-04-09T21:53:14.516Z,7.70
2023-04-09T22:00:46.631Z,7.67
2023-04-09T22:03:13.556Z,9.33
2023-04-09T22:05:41.660Z,7.93
2023-04-09T22:08:09.000Z,7.80
2023-04-09T22:10:36.741Z,8.63
2023-04-09T22:13:06.953Z,9.97
2023-04-09T22:15:34.227Z,7.23
2023-04-09T22:18:02.475Z,7.03
2023-04-09T22:25:40.310Z,6.70
2023-04-09T22:28:07.724Z,8.67
2023-04-09T22:30:35.461Z,9.30
2023-04-09T22:33:02.727Z,8.10
2023-04-09T22:35:30.550Z,8.83
2023-04-09T22:38:03.393Z,7.97
2023-04-09T22:40:32.114Z,9.07
2023-04-09T22:48:07.416Z,7.67
2023-04-09T22:50:34.687Z,7.70
2023-04-09T22:53:03.171Z,7.30
2023-04-09T22:55:30.346Z,8.60
2023-04-09T22:57:59.084Z,9.73
2023-04-09T23:00:29.118Z,9.13
2023-04-09T23:02:56.478Z,9.57
2023-04-09T23:05:25.246Z,11.67
2023-04-09T23:12:58.133Z,9.07
2023-04-09T23:15:26.330Z,6.50
2023-04-09T23:17:54.344Z,7.03
2023-04-09T23:20:21.702Z,8.20
2023-04-09T23:22:49.686Z,7.70
2023-04-09T23:25:17.090Z,8.60
2023-04-09T23:27:44.787Z,7.73
2023-04-09T23:33:09.128Z,8.97
2023-04-09T23:35:36.324Z,8.60
2023-04-09T23:38:03.543Z,8.77
2023-04-09T23:40:33.486Z,7.90
2023-04-09T23:43:01.699Z,9.27
2023-04-09T23:45:29.096Z,8.87
2023-04-09T23:47:57.269Z,9.93
2023-04-09T23:53:07.558Z,8.50
2023-04-09T23:55:38.205Z,8.13
2023-04-09T23:58:05.763Z,8.60
